Time;durP1;ratioP1;P1;durP2;ratioP2;P2;SDS_P1;SDS_P2;PMS_P1;PMS_P2;Temp;Humidity;BMP_temperature;BMP_pressure;BME280_temperature;BME280_humidity;BME280_pressure;Samples;Min_cycle;Max_cycle;Signal;HPM_P1;HPM_P2
2023/08/08 00:00:36;;;;;;;4.88;2.15;;;13.90;99.90;;;;;;4954278;29;20429;-74
2023/08/08 00:03:01;;;;;;;5.93;1.63;;;13.90;99.90;;;;;;4968886;28;20157;-74
2023/08/08 00:05:27;;;;;;;4.20;1.70;;;13.90;99.90;;;;;;4954000;29;20043;-74
2023/08/08 00:07:53;;;;;;;5.72;1.52;;;13.90;99.90;;;;;;4954030;29;20074;-74
2023/08/08 00:10:18;;;;;;;3.20;1.83;;;13.90;99.90;;;;;;4954249;29;20516;-74
2023/08/08 00:12:44;;;;;;;4.88;1.83;;;13.90;99.90;;;;;;4954305;29;20095;-74
2023/08/08 00:15:09;;;;;;;4.07;2.30;;;13.90;99.90;;;;;;4968644;28;20051;-74
2023/08/08 00:17:35;;;;;;;4.20;2.38;;;13.90;99.90;;;;;;4953733;29;20075;-74
2023/08/08 00:20:01;;;;;;;4.32;2.20;;;13.90;99.90;;;;;;4954848;28;20050;-74
2023/08/08 00:22:27;;;;;;;6.70;2.30;;;14.00;99.90;;;;;;4939930;29;20094;-75
2023/08/08 00:24:52;;;;;;;7.88;2.50;;;14.00;99.90;;;;;;4972065;28;20522;-74
2023/08/08 00:27:18;;;;;;;5.72;2.28;;;14.00;99.90;;;;;;4956990;29;20043;-74
2023/08/08 00:33:24;;;;;;;4.88;2.10;;;14.00;99.90;;;;;;4957100;29;20082;-75
2023/08/08 00:35:50;;;;;;;4.68;2.35;;;14.00;99.90;;;;;;4971887;28;20047;-74
2023/08/08 00:38:18;;;;;;;4.82;2.40;;;14.00;99.90;;;;;;4971490;28;20047;-74
2023/08/08 00:40:43;;;;;;;4.80;1.88;;;14.00;99.90;;;;;;4957195;29;20046;-74
2023/08/08 00:43:09;;;;;;;7.30;2.65;;;14.00;99.90;;;;;;4956898;29;20039;-74
2023/08/08 00:45:35;;;;;;;4.72;2.40;;;14.00;99.90;;;;;;4957171;29;20096;-74
2023/08/08 00:48:01;;;;;;;4.65;2.80;;;14.00;99.90;;;;;;4956933;29;20042;-74
2023/08/08 00:50:27;;;;;;;4.60;2.38;;;14.00;99.90;;;;;;4957076;29;20397;-74
2023/08/08 00:52:53;;;;;;;6.22;1.88;;;14.00;99.90;;;;;;4971501;28;20043;-74
2023/08/08 00:55:19;;;;;;;4.30;2.88;;;14.00;99.90;;;;;;4956587;29;20050;-74
2023/08/08 00:57:45;;;;;;;4.40;2.53;;;13.90;99.90;;;;;;4956656;29;20038;-74
2023/08/08 01:00:11;;;;;;;5.72;3.00;;;14.00;99.90;;;;;;4939626;29;20070;-74
2023/08/08 01:02:37;;;;;;;4.18;2.47;;;14.00;99.90;;;;;;4939559;29;20047;-74
2023/08/08 01:05:04;;;;;;;5.63;2.50;;;14.00;99.90;;;;;;4956630;29;20549;-74
2023/08/08 01:07:29;;;;;;;5.07;2.13;;;13.90;99.90;;;;;;4956659;29;20051;-74
2023/08/08 01:09:57;;;;;;;4.20;2.45;;;13.90;99.90;;;;;;4956358;29;20047;-74
2023/08/08 01:12:25;;;;;;;6.22;2.67;;;14.00;99.90;;;;;;4956447;29;20043;-74
2023/08/08 01:18:32;;;;;;;3.38;2.42;;;13.90;99.90;;;;;;4956070;29;20042;-75
2023/08/08 01:20:58;;;;;;;3.65;2.60;;;13.90;99.90;;;;;;4970937;28;20039;-74
2023/08/08 01:23:48;;;;;;;5.22;3.13;;;13.90;99.90;;;;;;4956119;29;20043;-74
2023/08/08 01:26:14;;;;;;;8.10;2.90;;;13.90;99.90;;;;;;4956153;29;20047;-74
2023/08/08 01:28:42;;;;;;;3.53;2.38;;;13.90;99.90;;;;;;4955826;29;20043;-74
2023/08/08 01:31:07;;;;;;;4.53;2.15;;;13.90;99.90;;;;;;4938840;28;20047;-75
2023/08/08 01:33:33;;;;;;;6.45;2.75;;;13.80;99.90;;;;;;4955608;29;20038;-74
2023/08/08 01:36:22;;;;;;;9.52;2.85;;;13.80;99.90;;;;;;4938918;29;20422;-75
2023/08/08 01:38:51;;;;;;;4.88;3.03;;;13.80;99.90;;;;;;4955977;29;20082;-74
2023/08/08 01:41:18;;;;;;;4.80;2.80;;;13.80;99.90;;;;;;4938448;29;20047;-75
2023/08/08 01:43:45;;;;;;;3.65;2.47;;;13.80;99.90;;;;;;4955883;29;20050;-75
2023/08/08 01:46:11;;;;;;;6.80;3.05;;;13.80;99.90;;;;;;4955896;29;20057;-74
2023/08/08 01:48:37;;;;;;;5.70;3.03;;;13.80;99.90;;;;;;4955807;29;20110;-75
2023/08/08 01:51:02;;;;;;;3.45;2.40;;;13.80;99.90;;;;;;4955613;29;20531;-75
2023/08/08 01:53:28;;;;;;;6.03;2.45;;;13.80;99.90;;;;;;4938277;29;20123;-75
2023/08/08 01:55:54;;;;;;;3.45;2.60;;;13.80;99.90;;;;;;4970610;28;20086;-75
2023/08/08 01:58:19;;;;;;;4.80;2.30;;;13.90;99.90;;;;;;4955261;29;20042;-75
2023/08/08 02:00:46;;;;;;;5.55;2.72;;;13.70;99.90;;;;;;4955432;29;20038;-74
2023/08/08 02:03:12;;;;;;;3.53;2.55;;;13.70;99.90;;;;;;4955790;29;20045;-74
2023/08/08 02:09:18;;;;;;;6.75;3.25;;;13.60;99.90;;;;;;4955250;29;20062;-74
2023/08/08 02:11:44;;;;;;;5.47;3.10;;;13.60;99.90;;;;;;4955381;29;20487;-74
2023/08/08 02:14:09;;;;;;;6.05;2.55;;;13.60;99.90;;;;;;4953953;29;20047;-74
2023/08/08 02:16:35;;;;;;;2.70;2.28;;;13.60;99.90;;;;;;4955213;29;20394;-75
2023/08/08 02:19:00;;;;;;;4.88;2.70;;;13.50;99.90;;;;;;4969887;28;20050;-75
2023/08/08 02:21:26;;;;;;;5.22;2.63;;;13.50;99.90;;;;;;4954953;29;20046;-75
2023/08/08 02:23:52;;;;;;;2.97;2.00;;;13.50;99.90;;;;;;4955323;29;20042;-75
2023/08/08 02:26:18;;;;;;;5.18;2.13;;;13.50;99.90;;;;;;4955432;29;20039;-75
2023/08/08 02:28:43;;;;;;;3.10;2.53;;;13.50;99.90;;;;;;4937433;29;20113;-75
2023/08/08 02:31:09;;;;;;;2.42;2.10;;;13.40;99.90;;;;;;4955201;29;20206;-75
2023/08/08 02:33:34;;;;;;;6.15;3.00;;;13.40;99.90;;;;;;4955374;29;20050;-76
2023/08/08 02:36:00;;;;;;;6.70;2.88;;;13.50;99.90;;;;;;4969980;28;20055;-75
2023/08/08 02:42:06;;;;;;;3.22;2.08;;;13.40;99.90;;;;;;4955628;29;20042;-75
2023/08/08 02:44:32;;;;;;;5.45;2.30;;;13.30;99.90;;;;;;4954426;28;20032;-75
2023/08/08 02:46:57;;;;;;;4.50;2.20;;;13.40;99.90;;;;;;4969715;28;20050;-75
2023/08/08 02:49:23;;;;;;;3.65;2.25;;;13.40;99.90;;;;;;4969740;28;20043;-76
2023/08/08 02:51:48;;;;;;;4.95;2.67;;;13.40;99.90;;;;;;4969685;28;20087;-75
2023/08/08 02:54:14;;;;;;;6.10;2.50;;;13.40;99.90;;;;;;4969374;28;20474;-75
2023/08/08 02:56:40;;;;;;;3.80;2.40;;;13.40;99.90;;;;;;4969171;28;20126;-75
2023/08/08 02:59:05;;;;;;;4.28;2.28;;;13.30;99.90;;;;;;4954867;29;20039;-75
2023/08/08 03:01:31;;;;;;;6.97;2.47;;;13.40;99.90;;;;;;4954656;29;20090;-75
2023/08/08 03:03:56;;;;;;;6.57;2.63;;;13.40;99.90;;;;;;4969275;28;20051;-75
2023/08/08 03:06:22;;;;;;;4.65;2.10;;;13.40;99.90;;;;;;4954773;29;20043;-75
2023/08/08 03:08:47;;;;;;;7.45;3.30;;;13.40;99.90;;;;;;4969067;28;20406;-75
2023/08/08 03:11:13;;;;;;;7.63;2.45;;;13.40;99.90;;;;;;4954999;29;20486;-75
2023/08/08 03:13:38;;;;;;;4.70;2.30;;;13.40;99.90;;;;;;4968889;28;20059;-75
2023/08/08 03:16:04;;;;;;;4.85;2.33;;;13.30;99.90;;;;;;4969200;28;20078;-75
2023/08/08 03:18:30;;;;;;;4.78;3.38;;;13.30;99.90;;;;;;4968997;28;20050;-75
2023/08/08 03:20:55;;;;;;;3.78;2.80;;;13.30;99.90;;;;;;4969440;28;20051;-75
2023/08/08 03:23:23;;;;;;;5.35;2.70;;;13.30;99.90;;;;;;4937303;29;20050;-75
2023/08/08 03:25:48;;;;;;;6.20;2.58;;;13.30;99.90;;;;;;4954817;29;20082;-74
2023/08/08 03:28:14;;;;;;;8.57;3.20;;;13.30;99.90;;;;;;4936626;29;20074;-75
2023/08/08 03:30:39;;;;;;;5.53;2.78;;;13.30;99.90;;;;;;4954665;29;20039;-75
2023/08/08 03:33:05;;;;;;;8.80;2.90;;;13.30;99.90;;;;;;4954345;29;20035;-75
2023/08/08 03:35:31;;;;;;;8.70;3.20;;;13.30;99.90;;;;;;4969045;28;20052;-75
2023/08/08 03:37:56;;;;;;;5.95;2.63;;;13.30;99.90;;;;;;4968890;28;20501;-75
2023/08/08 03:40:22;;;;;;;4.72;2.53;;;13.30;99.90;;;;;;4969305;28;20036;-75
2023/08/08 03:42:47;;;;;;;7.47;2.33;;;13.30;99.90;;;;;;4954495;29;20159;-75
2023/08/08 03:45:13;;;;;;;5.63;2.13;;;13.30;99.90;;;;;;4954218;29;20398;-75
2023/08/08 03:51:19;;;;;;;8.15;1.98;;;13.30;99.90;;;;;;4954415;29;20082;-75
2023/08/08 03:53:45;;;;;;;7.47;2.03;;;13.30;99.90;;;;;;4954383;29;20138;-76
2023/08/08 03:56:10;;;;;;;6.15;1.80;;;13.20;99.90;;;;;;4971582;28;20130;-75
2023/08/08 03:58:38;;;;;;;5.00;1.40;;;13.30;99.90;;;;;;4956957;29;20431;-75
2023/08/08 04:01:03;;;;;;;5.70;1.60;;;13.20;99.90;;;;;;4940318;29;20414;-75
2023/08/08 04:03:29;;;;;;;4.55;2.17;;;13.20;99.90;;;;;;4957666;29;20054;-75
2023/08/08 04:05:55;;;;;;;5.00;1.30;;;13.10;99.90;;;;;;4957506;29;20179;-75
2023/08/08 04:08:20;;;;;;;4.75;1.80;;;13.10;99.90;;;;;;4957291;29;20054;-75
2023/08/08 04:10:49;;;;;;;6.75;1.65;;;13.20;99.90;;;;;;4957679;29;20035;-75
2023/08/08 04:13:14;;;;;;;6.65;1.90;;;13.10;99.90;;;;;;4972084;28;20039;-75
2023/08/08 04:15:41;;;;;;;4.00;1.50;;;13.10;99.90;;;;;;4957501;29;20035;-75
2023/08/08 04:18:06;;;;;;;9.60;1.45;;;13.10;99.90;;;;;;4957288;29;20047;-75
2023/08/08 04:20:33;;;;;;;6.90;1.42;;;13.10;99.90;;;;;;4957521;29;20062;-75
2023/08/08 04:22:59;;;;;;;6.72;1.42;;;13.20;99.90;;;;;;4957601;29;20043;-75
2023/08/08 04:25:24;;;;;;;4.32;1.25;;;13.20;99.90;;;;;;4940243;29;20134;-75
2023/08/08 04:27:50;;;;;;;7.68;1.75;;;13.20;99.90;;;;;;4971665;28;20047;-75
2023/08/08 04:30:16;;;;;;;8.85;0.90;;;13.30;99.90;;;;;;4957342;29;20043;-75
2023/08/08 04:32:41;;;;;;;5.63;0.90;;;13.20;99.90;;;;;;4957379;29;20575;-75
2023/08/08 04:35:07;;;;;;;2.80;0.70;;;13.30;99.90;;;;;;4957108;29;20047;-75
2023/08/08 04:37:32;;;;;;;6.88;1.08;;;13.30;99.90;;;;;;4939588;29;20459;-75
2023/08/08 04:39:58;;;;;;;5.78;1.10;;;13.30;99.90;;;;;;4956784;29;20039;-75
2023/08/08 04:42:23;;;;;;;10.07;1.38;;;13.40;99.90;;;;;;4957714;29;20494;-75
2023/08/08 04:44:49;;;;;;;8.13;1.17;;;13.50;99.90;;;;;;4957033;29;20411;-75
2023/08/08 04:50:55;;;;;;;9.38;1.73;;;13.50;99.90;;;;;;4956988;29;20478;-75
2023/08/08 04:53:21;;;;;;;7.97;1.23;;;13.60;99.90;;;;;;4957319;29;20043;-75
2023/08/08 04:55:47;;;;;;;3.42;0.80;;;13.60;99.90;;;;;;4956967;29;20039;-75
2023/08/08 04:58:12;;;;;;;9.82;1.75;;;13.60;99.90;;;;;;4956416;29;20043;-75
2023/08/08 05:00:38;;;;;;;4.05;0.82;;;13.70;99.90;;;;;;4971423;28;20387;-74
2023/08/08 05:03:04;;;;;;;6.43;0.63;;;13.80;99.90;;;;;;4971661;28;20047;-74
2023/08/08 05:05:29;;;;;;;5.63;1.13;;;13.90;99.90;;;;;;4956828;29;20062;-75
2023/08/08 05:07:55;;;;;;;8.40;1.15;;;14.10;99.90;;;;;;4955048;28;20058;-75
2023/08/08 05:10:20;;;;;;;6.63;1.48;;;14.20;99.90;;;;;;4971415;28;20047;-74
2023/08/08 05:12:46;;;;;;;4.10;0.80;;;14.40;99.90;;;;;;4923508;29;20066;-75
2023/08/08 05:18:52;;;;;;;5.03;0.70;;;14.80;99.90;;;;;;4956147;29;20057;-75
2023/08/08 05:21:18;;;;;;;2.30;0.70;;;15.00;99.90;;;;;;4956551;29;20031;-75
2023/08/08 05:23:44;;;;;;;5.30;1.00;;;15.40;99.90;;;;;;4956575;29;20106;-75
2023/08/08 05:26:09;;;;;;;4.50;0.60;;;15.70;99.90;;;;;;4956584;29;20422;-75
2023/08/08 05:28:35;;;;;;;3.70;0.77;;;16.00;99.90;;;;;;4955895;29;20039;-75
2023/08/08 05:31:01;;;;;;;3.67;1.15;;;16.20;99.90;;;;;;4956083;29;20043;-75
2023/08/08 05:33:26;;;;;;;3.35;0.63;;;16.10;99.90;;;;;;4956107;29;20048;-75
2023/08/08 05:35:52;;;;;;;5.15;1.08;;;16.00;99.90;;;;;;4970899;28;20054;-75
2023/08/08 05:41:58;;;;;;;3.65;0.60;;;15.80;99.90;;;;;;4956072;29;20460;-75
2023/08/08 05:44:24;;;;;;;1.85;0.40;;;15.70;99.90;;;;;;4955783;29;20070;-75
2023/08/08 05:46:50;;;;;;;2.83;0.75;;;15.60;99.90;;;;;;4956326;29;20047;-76
2023/08/08 05:49:15;;;;;;;3.58;0.75;;;15.80;99.90;;;;;;4970751;28;20039;-75
2023/08/08 05:51:41;;;;;;;1.98;0.52;;;16.10;99.90;;;;;;4955601;29;20043;-75
2023/08/08 05:54:06;;;;;;;4.93;0.70;;;16.60;99.90;;;;;;4970639;28;20047;-75
2023/08/08 05:56:36;;;;;;;3.50;0.60;;;16.70;99.90;;;;;;4969759;28;20382;-75
2023/08/08 05:59:02;;;;;;;2.95;0.60;;;17.00;99.90;;;;;;4938458;29;20171;-74
2023/08/08 06:01:27;;;;;;;3.28;1.05;;;17.50;99.90;;;;;;4970180;28;20079;-74
2023/08/08 06:03:53;;;;;;;4.65;0.95;;;18.00;99.90;;;;;;4970265;28;20047;-74
2023/08/08 06:06:19;;;;;;;3.33;0.52;;;18.50;99.90;;;;;;4955768;29;20089;-75
2023/08/08 06:08:45;;;;;;;3.60;0.60;;;18.80;99.90;;;;;;4970444;28;20133;-74
2023/08/08 06:11:11;;;;;;;4.82;0.77;;;19.20;99.90;;;;;;4955723;29;20477;-74
2023/08/08 06:13:37;;;;;;;4.47;0.90;;;19.50;99.90;;;;;;4955638;29;20438;-75
2023/08/08 06:16:06;;;;;;;2.60;0.68;;;19.70;99.90;;;;;;4955652;29;20042;-75
2023/08/08 06:18:35;;;;;;;3.92;0.90;;;20.00;99.90;;;;;;4955069;28;20043;-72
2023/08/08 06:21:01;;;;;;;4.55;1.00;;;20.30;99.90;;;;;;4955596;29;20039;-76
2023/08/08 06:23:27;;;;;;;3.70;0.60;;;20.50;99.90;;;;;;4937940;29;20047;-75
2023/08/08 06:25:53;;;;;;;2.80;0.60;;;20.60;99.90;;;;;;4955192;29;20066;-75
2023/08/08 06:28:19;;;;;;;6.88;0.85;;;20.80;99.90;;;;;;4955073;29;20066;-75
2023/08/08 06:30:44;;;;;;;4.40;0.57;;;20.80;99.90;;;;;;4955507;29;20154;-74
2023/08/08 06:33:10;;;;;;;8.32;1.23;;;20.90;99.90;;;;;;4969823;28;20043;-74
2023/08/08 06:35:36;;;;;;;6.10;0.98;;;21.00;99.90;;;;;;4937953;29;20494;-75
2023/08/08 06:38:02;;;;;;;3.97;0.70;;;21.10;99.90;;;;;;4937584;29;20071;-74
2023/08/08 06:40:28;;;;;;;4.85;0.68;;;21.10;99.90;;;;;;4937724;29;20039;-76
2023/08/08 06:42:53;;;;;;;6.85;1.40;;;21.10;99.90;;;;;;4954811;29;20039;-75
2023/08/08 06:45:19;;;;;;;5.40;0.73;;;21.30;99.90;;;;;;4969724;28;20086;-77
2023/08/08 06:47:45;;;;;;;3.60;0.65;;;21.20;99.90;;;;;;4969772;28;20043;-75
2023/08/08 06:50:11;;;;;;;4.05;0.90;;;21.40;99.90;;;;;;4970103;28;20046;-75
2023/08/08 06:52:36;;;;;;;9.40;1.45;;;21.60;99.90;;;;;;4954817;29;20043;-76
2023/08/08 06:55:02;;;;;;;4.90;0.88;;;21.50;99.90;;;;;;4969709;28;20127;-76
2023/08/08 06:57:32;;;;;;;10.80;1.98;;;21.70;99.90;;;;;;4954562;29;20565;-76
2023/08/08 06:59:57;;;;;;;5.97;1.17;;;21.80;99.90;;;;;;4937567;29;20074;-73
2023/08/08 07:02:23;;;;;;;3.08;0.85;;;21.90;99.90;;;;;;4970059;28;20105;-74
2023/08/08 07:04:49;;;;;;;9.80;1.67;;;21.80;99.90;;;;;;4954989;29;20047;-74
2023/08/08 07:07:14;;;;;;;5.70;1.00;;;21.60;99.90;;;;;;4954957;29;20071;-76
2023/08/08 07:09:41;;;;;;;5.28;0.68;;;21.70;99.90;;;;;;4970487;28;20058;-76
2023/08/08 07:12:07;;;;;;;3.80;0.80;;;21.80;99.90;;;;;;4955734;29;20047;-76
2023/08/08 07:14:33;;;;;;;6.13;0.88;;;21.70;99.90;;;;;;4970240;28;20039;-76
2023/08/08 07:16:59;;;;;;;8.27;1.05;;;21.50;99.90;;;;;;4954984;29;20386;-75
2023/08/08 07:19:25;;;;;;;6.45;0.88;;;21.90;99.90;;;;;;4955243;29;20035;-77
2023/08/08 07:25:31;;;;;;;2.50;0.57;;;21.80;99.90;;;;;;4954870;29;20094;-76
2023/08/08 07:27:56;;;;;;;4.03;0.90;;;22.10;99.90;;;;;;4954297;29;20450;-76
2023/08/08 07:30:22;;;;;;;5.25;1.30;;;21.90;99.90;;;;;;4970903;28;20050;-76
2023/08/08 07:32:48;;;;;;;5.25;0.80;;;22.10;99.90;;;;;;4940936;29;20046;-75
2023/08/08 07:35:15;;;;;;;4.70;0.73;;;21.90;99.90;;;;;;4958505;29;20043;-75
2023/08/08 07:37:40;;;;;;;7.20;0.80;;;21.70;99.90;;;;;;4972869;28;20491;-75
2023/08/08 07:40:17;;;;;;;3.13;0.40;;;21.50;99.90;;;;;;4958549;29;20045;-76
2023/08/08 07:42:44;;;;;;;4.25;0.60;;;21.50;99.90;;;;;;4958328;29;20241;-75
2023/08/08 07:45:09;;;;;;;5.45;0.82;;;21.70;99.90;;;;;;4973081;28;20049;-74
2023/08/08 07:47:35;;;;;;;8.13;1.15;;;21.80;99.90;;;;;;4972845;28;20126;-75
2023/08/08 07:50:00;;;;;;;4.18;0.60;;;21.90;99.90;;;;;;4958402;29;20078;-75
2023/08/08 07:52:26;;;;;;;2.33;0.80;;;21.70;99.90;;;;;;4972807;28;20494;-75
2023/08/08 07:54:52;;;;;;;4.82;0.85;;;21.40;99.90;;;;;;4940960;29;20118;-74
2023/08/08 07:57:18;;;;;;;4.88;0.60;;;21.00;99.90;;;;;;4957969;29;20050;-75
2023/08/08 07:59:43;;;;;;;3.75;0.47;;;20.60;99.90;;;;;;4941083;29;20425;-74
2023/08/08 08:02:09;;;;;;;4.53;0.40;;;20.40;99.90;;;;;;4973023;28;20043;-75
2023/08/08 08:04:35;;;;;;;2.55;0.93;;;20.20;99.90;;;;;;4958041;29;20097;-74
2023/08/08 08:07:00;;;;;;;3.58;0.75;;;20.00;99.90;;;;;;4958015;29;20109;-75
2023/08/08 08:09:26;;;;;;;4.07;0.90;;;19.80;99.90;;;;;;4957873;29;20446;-74
2023/08/08 08:11:52;;;;;;;2.78;0.80;;;19.80;99.90;;;;;;4955442;29;20066;-77
2023/08/08 08:14:17;;;;;;;3.33;0.50;;;19.70;99.90;;;;;;4928441;29;20167;-77
2023/08/08 08:16:44;;;;;;;3.28;0.50;;;19.60;99.90;;;;;;4931146;29;20094;-77
2023/08/08 08:19:10;;;;;;;3.00;0.50;;;19.60;99.90;;;;;;4925514;29;20040;-76
2023/08/08 08:21:36;;;;;;;6.53;2.08;;;19.60;99.90;;;;;;4962154;28;20948;-75
2023/08/08 08:24:02;;;;;;;6.35;1.05;;;19.70;99.90;;;;;;4947278;29;20047;-74
2023/08/08 08:26:27;;;;;;;5.57;0.90;;;19.70;99.90;;;;;;4948765;29;20039;-74
2023/08/08 08:28:53;;;;;;;4.13;0.60;;;19.80;99.90;;;;;;4944471;29;20043;-75
2023/08/08 08:31:19;;;;;;;2.75;0.60;;;19.80;99.90;;;;;;4937565;29;20047;-75
2023/08/08 08:33:44;;;;;;;4.80;1.00;;;19.80;99.90;;;;;;4943562;28;20038;-75
2023/08/08 08:36:10;;;;;;;4.07;0.98;;;19.60;99.90;;;;;;4947008;29;20083;-75
2023/08/08 08:38:35;;;;;;;2.25;0.50;;;19.50;99.90;;;;;;4958840;28;20040;-73
2023/08/08 08:41:03;;;;;;;5.60;1.30;;;19.60;99.90;;;;;;4929514;29;20054;-72
2023/08/08 08:43:30;;;;;;;3.58;0.60;;;19.80;99.90;;;;;;4948255;28;20106;-73
2023/08/08 08:45:59;;;;;;;3.15;0.65;;;19.80;99.90;;;;;;4935597;28;20047;-75
2023/08/08 08:48:25;;;;;;;4.35;0.50;;;19.70;99.90;;;;;;4957947;28;20118;-75
2023/08/08 08:50:51;;;;;;;5.20;0.90;;;19.70;99.90;;;;;;4961142;28;20047;-75
2023/08/08 08:53:17;;;;;;;7.60;1.80;;;19.50;99.90;;;;;;4963894;28;20076;-75
2023/08/08 08:55:43;;;;;;;10.23;1.45;;;19.40;99.90;;;;;;4930578;29;20443;-74
2023/08/08 08:58:10;;;;;;;3.13;0.85;;;19.40;99.90;;;;;;4959743;28;20050;-75
2023/08/08 09:00:36;;;;;;;3.70;1.02;;;19.40;99.90;;;;;;4943233;28;20038;-74
2023/08/08 09:03:03;;;;;;;2.83;0.47;;;19.30;99.90;;;;;;4962747;28;20047;-74
2023/08/08 09:05:30;;;;;;;6.13;0.70;;;19.30;99.90;;;;;;4947032;28;20499;-74
2023/08/08 09:07:56;;;;;;;3.97;0.70;;;19.40;99.90;;;;;;4943693;28;20131;-74
2023/08/08 09:10:21;;;;;;;4.85;0.85;;;19.60;99.90;;;;;;4945779;28;20453;-75
2023/08/08 09:12:48;;;;;;;4.38;0.93;;;19.60;99.90;;;;;;4928989;28;20039;-75
2023/08/08 09:15:14;;;;;;;4.63;0.60;;;19.60;99.90;;;;;;4929787;29;20453;-75
2023/08/08 09:21:21;;;;;;;3.65;0.77;;;19.40;99.90;;;;;;4956411;29;20042;-75
2023/08/08 09:23:47;;;;;;;5.25;0.70;;;19.30;99.90;;;;;;4956334;29;20043;-75
2023/08/08 09:26:14;;;;;;;5.15;0.70;;;19.10;99.90;;;;;;4956463;28;20406;-77
2023/08/08 09:28:39;;;;;;;3.22;0.57;;;18.80;99.90;;;;;;4939759;29;20126;-77
2023/08/08 09:31:05;;;;;;;6.20;1.25;;;18.60;99.90;;;;;;4956107;29;20491;-77
2023/08/08 09:33:31;;;;;;;5.18;0.90;;;18.40;99.90;;;;;;4955706;29;20058;-77
2023/08/08 09:35:56;;;;;;;5.47;1.55;;;18.30;99.90;;;;;;4938810;29;20035;-76
2023/08/08 09:38:22;;;;;;;6.85;0.50;;;18.20;99.90;;;;;;4955901;29;20102;-77
2023/08/08 09:40:50;;;;;;;5.38;1.00;;;18.00;99.90;;;;;;4956240;29;20530;-77
2023/08/08 09:43:16;;;;;;;3.78;0.52;;;18.00;99.90;;;;;;4955871;29;20039;-77
2023/08/08 09:45:41;;;;;;;3.95;0.95;;;18.30;99.90;;;;;;4955726;29;20039;-77
2023/08/08 09:48:07;;;;;;;5.50;0.70;;;18.50;99.90;;;;;;4955182;29;20050;-76
2023/08/08 09:50:34;;;;;;;3.80;0.65;;;18.60;99.90;;;;;;4955998;29;20122;-76
2023/08/08 09:53:01;;;;;;;5.10;0.73;;;18.50;99.90;;;;;;4970025;28;20047;-76
2023/08/08 09:55:28;;;;;;;4.30;0.95;;;18.50;99.90;;;;;;4970715;28;20126;-76
2023/08/08 09:57:54;;;;;;;3.67;0.60;;;18.50;99.90;;;;;;4955303;29;20065;-76
2023/08/08 10:00:20;;;;;;;3.33;0.60;;;18.70;99.90;;;;;;4970397;28;20047;-76
2023/08/08 10:02:47;;;;;;;5.10;0.52;;;18.70;99.90;;;;;;4938335;29;20051;-76
2023/08/08 10:05:14;;;;;;;2.95;0.70;;;18.60;99.90;;;;;;4938103;29;20055;-76
2023/08/08 10:07:41;;;;;;;4.22;0.60;;;18.50;99.90;;;;;;4938154;29;20059;-76
2023/08/08 10:10:09;;;;;;;5.97;1.33;;;18.80;99.90;;;;;;4970504;28;20105;-75
2023/08/08 10:12:37;;;;;;;6.05;0.82;;;19.10;99.90;;;;;;4955433;29;20070;-75
2023/08/08 10:15:08;;;;;;;4.18;1.08;;;19.60;99.90;;;;;;4969931;28;20074;-75
2023/08/08 10:17:38;;;;;;;3.40;0.50;;;19.80;99.90;;;;;;4955214;29;20544;-75
2023/08/08 10:20:11;;;;;;;7.13;2.20;;;19.70;99.90;;;;;;4954868;29;20379;-75
2023/08/08 10:26:19;;;;;;;2.92;0.30;;;20.00;99.90;;;;;;4955494;29;20042;-74
2023/08/08 10:28:58;;;;;;;2.78;0.63;;;20.00;99.90;;;;;;4969566;28;20055;-77
2023/08/08 10:31:24;;;;;;;7.70;1.00;;;20.50;99.90;;;;;;4955277;29;20043;-75
2023/08/08 10:34:00;;;;;;;2.67;0.63;;;20.60;99.90;;;;;;4954928;29;20131;-75
2023/08/08 10:36:26;;;;;;;2.63;0.77;;;20.90;99.90;;;;;;4937722;29;20039;-76
2023/08/08 10:38:52;;;;;;;3.10;0.60;;;20.90;99.90;;;;;;4954762;29;20046;-75
2023/08/08 10:41:20;;;;;;;4.18;0.93;;;21.20;99.90;;;;;;4969828;28;20082;-76
2023/08/08 10:43:50;;;;;;;3.22;0.52;;;21.10;99.90;;;;;;4955305;29;20045;-75
2023/08/08 10:46:26;;;;;;;3.33;0.60;;;20.80;99.90;;;;;;4969606;28;20127;-75
2023/08/08 10:48:54;;;;;;;1.55;0.35;;;20.50;99.90;;;;;;4954833;29;20060;-75
2023/08/08 10:51:20;;;;;;;3.92;1.02;;;20.40;99.90;;;;;;4954939;29;20050;-75
2023/08/08 10:53:45;;;;;;;4.45;0.63;;;20.60;99.90;;;;;;4954579;28;20047;-75
2023/08/08 10:56:13;;;;;;;3.60;0.60;;;20.80;99.90;;;;;;4954780;29;20135;-75
2023/08/08 10:58:47;;;;;;;7.35;1.08;;;21.10;99.90;;;;;;4954866;29;20447;-75
2023/08/08 11:01:14;;;;;;;2.92;0.50;;;21.50;99.90;;;;;;4921833;29;20122;-75
2023/08/08 11:03:41;;;;;;;3.72;0.50;;;21.70;99.90;;;;;;4954799;29;20058;-76
2023/08/08 11:06:08;;;;;;;5.90;0.93;;;21.80;99.90;;;;;;4968734;28;20578;-75
2023/08/08 11:08:35;;;;;;;5.93;0.80;;;21.70;99.90;;;;;;4954654;28;20368;-75
2023/08/08 11:11:02;;;;;;;7.30;0.63;;;21.40;99.90;;;;;;4954558;29;20082;-76
2023/08/08 11:13:28;;;;;;;3.22;0.75;;;21.00;99.90;;;;;;4969257;28;20101;-76
2023/08/08 11:15:53;;;;;;;2.28;0.70;;;20.90;99.90;;;;;;4954634;29;20433;-76
2023/08/08 11:18:19;;;;;;;4.85;0.80;;;21.20;99.90;;;;;;4936913;29;20459;-76
2023/08/08 11:20:45;;;;;;;3.72;0.73;;;21.50;99.90;;;;;;4954365;28;20039;-76
2023/08/08 11:23:12;;;;;;;7.75;1.10;;;21.80;99.90;;;;;;4954707;29;20130;-76
2023/08/08 11:25:44;;;;;;;6.50;1.25;;;21.50;99.90;;;;;;4954112;29;20536;-76
2023/08/08 11:28:11;;;;;;;4.10;0.60;;;21.20;99.90;;;;;;4936587;29;20043;-76
2023/08/08 11:30:43;;;;;;;5.20;1.25;;;20.80;99.90;;;;;;4968925;28;20387;-77
2023/08/08 11:33:08;;;;;;;3.97;1.13;;;20.80;99.90;;;;;;4954522;29;20120;-75
2023/08/08 11:35:34;;;;;;;4.88;0.77;;;20.80;99.90;;;;;;4954555;29;20050;-75
2023/08/08 11:38:00;;;;;;;4.55;1.17;;;20.80;99.90;;;;;;4954571;29;20070;-75
2023/08/08 11:40:29;;;;;;;3.40;0.75;;;20.90;99.90;;;;;;4968895;28;20474;-76
2023/08/08 11:42:59;;;;;;;3.45;0.88;;;21.00;99.90;;;;;;4921574;29;20086;-76
2023/08/08 11:49:06;;;;;;;3.58;1.58;;;21.10;99.90;;;;;;4954283;29;20050;-75
2023/08/08 11:51:35;;;;;;;2.83;0.50;;;20.80;99.90;;;;;;4954938;29;20098;-75
2023/08/08 11:54:03;;;;;;;4.03;0.57;;;20.90;99.90;;;;;;4936913;29;20039;-75
2023/08/08 11:56:32;;;;;;;4.68;0.95;;;21.10;99.90;;;;;;4954673;29;20039;-76
2023/08/08 11:58:59;;;;;;;5.45;0.90;;;21.40;99.90;;;;;;4954490;29;20042;-76
2023/08/08 12:01:26;;;;;;;3.40;1.02;;;21.60;99.90;;;;;;4954553;28;20046;-76
2023/08/08 12:03:52;;;;;;;4.85;0.70;;;21.50;99.90;;;;;;4954415;29;20053;-75
2023/08/08 12:06:18;;;;;;;3.83;1.13;;;21.20;99.90;;;;;;4954602;29;20118;-75
2023/08/08 12:08:45;;;;;;;4.03;0.73;;;20.90;99.90;;;;;;4968794;28;20086;-76
2023/08/08 12:11:12;;;;;;;3.38;0.52;;;20.50;99.90;;;;;;4968921;28;20047;-76
2023/08/08 12:13:40;;;;;;;3.05;0.70;;;20.50;99.90;;;;;;4936736;29;20048;-76
2023/08/08 12:16:11;;;;;;;10.90;1.48;;;20.40;99.90;;;;;;4954850;28;20099;-75
2023/08/08 12:18:38;;;;;;;3.75;0.77;;;20.40;99.90;;;;;;4972473;28;20102;-75
2023/08/08 12:21:07;;;;;;;4.85;0.90;;;20.60;99.90;;;;;;4957509;29;20504;-76
2023/08/08 12:23:34;;;;;;;5.22;1.02;;;20.80;99.90;;;;;;4972541;28;20070;-76
2023/08/08 12:26:02;;;;;;;6.35;0.90;;;20.90;99.90;;;;;;4957273;29;20531;-76
2023/08/08 12:28:29;;;;;;;7.80;0.75;;;20.90;99.90;;;;;;4971862;28;20058;-76
2023/08/08 12:30:54;;;;;;;2.75;0.52;;;20.80;99.90;;;;;;4957184;29;20531;-76
2023/08/08 12:33:20;;;;;;;2.40;0.70;;;20.70;99.90;;;;;;4957526;29;20050;-76
2023/08/08 12:35:46;;;;;;;4.88;0.50;;;20.50;99.90;;;;;;4957110;29;20040;-76
2023/08/08 12:38:12;;;;;;;4.78;0.68;;;20.40;99.90;;;;;;4957287;29;20118;-76
2023/08/08 12:40:37;;;;;;;2.95;1.27;;;20.50;99.90;;;;;;4940100;29;20089;-76
2023/08/08 12:43:03;;;;;;;4.40;0.88;;;20.60;99.90;;;;;;4957656;29;20039;-76
2023/08/08 12:45:29;;;;;;;6.45;1.30;;;20.80;99.90;;;;;;4972293;28;20055;-76
2023/08/08 12:47:54;;;;;;;4.85;1.02;;;21.00;99.90;;;;;;4939761;29;20043;-76
2023/08/08 12:50:20;;;;;;;5.65;0.88;;;21.10;99.90;;;;;;4957283;29;20082;-76
2023/08/08 12:52:45;;;;;;;13.07;1.13;;;21.00;99.90;;;;;;4939730;29;20047;-75
2023/08/08 12:55:11;;;;;;;4.75;1.60;;;21.30;99.90;;;;;;4956780;29;20043;-76
2023/08/08 12:57:38;;;;;;;1.77;0.60;;;21.20;99.90;;;;;;4939710;29;20054;-76
2023/08/08 13:00:05;;;;;;;3.00;0.77;;;21.30;99.90;;;;;;4971852;28;20103;-76
2023/08/08 13:02:32;;;;;;;4.82;0.70;;;21.40;99.90;;;;;;4957044;29;20061;-76
2023/08/08 13:04:58;;;;;;;2.95;0.50;;;21.50;99.90;;;;;;4956178;29;20047;-76
2023/08/08 13:07:23;;;;;;;3.80;0.77;;;21.40;99.90;;;;;;4955544;29;20050;-74
2023/08/08 13:09:49;;;;;;;2.55;0.60;;;21.30;99.90;;;;;;4939087;29;20043;-75
2023/08/08 13:12:14;;;;;;;5.13;0.55;;;21.10;99.90;;;;;;4939565;29;20047;-75
2023/08/08 13:14:40;;;;;;;5.88;0.57;;;21.00;99.90;;;;;;4939468;29;20086;-75
2023/08/08 13:17:05;;;;;;;2.55;0.60;;;21.10;99.90;;;;;;4939037;29;20055;-75
2023/08/08 13:19:31;;;;;;;10.50;1.60;;;21.00;99.90;;;;;;4956535;29;20050;-74
2023/08/08 13:21:57;;;;;;;2.58;0.60;;;21.10;99.90;;;;;;4956502;29;20046;-75
2023/08/08 13:24:23;;;;;;;4.90;0.65;;;21.30;99.90;;;;;;4939139;29;20043;-76